sensor_id;sensor_type;location;lat;lon;timestamp;temperature;humidity
31619;DHT22;18230;51.502;7.108;2022-09-13T00:01:49;20.20;99.90
31619;DHT22;18230;51.502;7.108;2022-09-13T00:06:50;20.10;99.90
31619;DHT22;18230;51.502;7.108;2022-09-13T00:11:51;20.10;99.90
31619;DHT22;18230;51.502;7.108;2022-09-13T00:16:52;20.10;99.90
31619;DHT22;18230;51.502;7.108;2022-09-13T00:21:54;20.10;99.90
31619;DHT22;18230;51.502;7.108;2022-09-13T00:26:56;20.00;99.90
31619;DHT22;18230;51.502;7.108;2022-09-13T00:31:59;20.00;99.90
31619;DHT22;18230;51.502;7.108;2022-09-13T00:37:00;20.00;99.90
31619;DHT22;18230;51.502;7.108;2022-09-13T00:42:01;20.00;99.90
31619;DHT22;18230;51.502;7.108;2022-09-13T00:47:02;20.00;99.90
31619;DHT22;18230;51.502;7.108;2022-09-13T00:52:09;19.90;99.90
31619;DHT22;18230;51.502;7.108;2022-09-13T00:57:12;20.00;99.90
31619;DHT22;18230;51.502;7.108;2022-09-13T01:02:14;19.90;99.90
31619;DHT22;18230;51.502;7.108;2022-09-13T01:07:16;19.90;99.90
31619;DHT22;18230;51.502;7.108;2022-09-13T01:17:21;19.90;99.90
31619;DHT22;18230;51.502;7.108;2022-09-13T01:22:36;19.90;99.90
31619;DHT22;18230;51.502;7.108;2022-09-13T01:28:11;19.90;99.90
31619;DHT22;18230;51.502;7.108;2022-09-13T01:33:55;19.90;99.90
31619;DHT22;18230;51.502;7.108;2022-09-13T01:39:26;19.90;99.90
31619;DHT22;18230;51.502;7.108;2022-09-13T01:50:14;19.70;99.90
31619;DHT22;18230;51.502;7.108;2022-09-13T01:55:28;19.70;99.90
31619;DHT22;18230;51.502;7.108;2022-09-13T02:00:36;19.70;99.90
31619;DHT22;18230;51.502;7.108;2022-09-13T02:06:02;19.70;99.90
31619;DHT22;18230;51.502;7.108;2022-09-13T02:11:11;19.70;99.90
31619;DHT22;18230;51.502;7.108;2022-09-13T02:16:17;19.80;99.90
31619;DHT22;18230;51.502;7.108;2022-09-13T02:21:24;19.80;99.90
31619;DHT22;18230;51.502;7.108;2022-09-13T02:26:27;19.80;99.90
31619;DHT22;18230;51.502;7.108;2022-09-13T02:31:34;19.80;99.90
31619;DHT22;18230;51.502;7.108;2022-09-13T02:36:38;19.90;99.90
31619;DHT22;18230;51.502;7.108;2022-09-13T02:41:55;19.90;99.90
31619;DHT22;18230;51.502;7.108;2022-09-13T02:47:08;19.90;99.90
31619;DHT22;18230;51.502;7.108;2022-09-13T02:52:47;19.90;99.90
31619;DHT22;18230;51.502;7.108;2022-09-13T02:57:53;19.90;99.90
31619;DHT22;18230;51.502;7.108;2022-09-13T03:02:55;19.90;99.90
31619;DHT22;18230;51.502;7.108;2022-09-13T03:07:58;19.90;99.90
31619;DHT22;18230;51.502;7.108;2022-09-13T03:24:50;19.90;99.90
31619;DHT22;18230;51.502;7.108;2022-09-13T03:30:02;19.90;99.90
31619;DHT22;18230;51.502;7.108;2022-09-13T03:40:39;19.80;99.90
31619;DHT22;18230;51.502;7.108;2022-09-13T03:45:50;19.90;99.90
31619;DHT22;18230;51.502;7.108;2022-09-13T03:50:52;19.80;99.90
31619;DHT22;18230;51.502;7.108;2022-09-13T03:55:59;19.80;99.90
31619;DHT22;18230;51.502;7.108;2022-09-13T04:01:22;19.90;99.90
31619;DHT22;18230;51.502;7.108;2022-09-13T04:06:23;19.80;99.90
31619;DHT22;18230;51.502;7.108;2022-09-13T04:11:24;19.90;99.90
31619;DHT22;18230;51.502;7.108;2022-09-13T04:16:24;19.80;99.90
31619;DHT22;18230;51.502;7.108;2022-09-13T04:21:25;19.80;99.90
31619;DHT22;18230;51.502;7.108;2022-09-13T04:26:26;19.70;99.90
31619;DHT22;18230;51.502;7.108;2022-09-13T04:31:27;19.70;99.90
31619;DHT22;18230;51.502;7.108;2022-09-13T04:36:27;19.60;99.90
31619;DHT22;18230;51.502;7.108;2022-09-13T04:41:28;19.50;99.90
31619;DHT22;18230;51.502;7.108;2022-09-13T04:46:29;19.50;99.90
31619;DHT22;18230;51.502;7.108;2022-09-13T04:51:30;19.50;99.90
31619;DHT22;18230;51.502;7.108;2022-09-13T04:56:31;19.50;99.90
31619;DHT22;18230;51.502;7.108;2022-09-13T05:01:32;19.50;99.90
31619;DHT22;18230;51.502;7.108;2022-09-13T05:06:32;19.40;99.90
31619;DHT22;18230;51.502;7.108;2022-09-13T05:11:33;19.40;99.90
31619;DHT22;18230;51.502;7.108;2022-09-13T05:16:34;19.40;99.90
31619;DHT22;18230;51.502;7.108;2022-09-13T05:21:35;19.40;99.90
31619;DHT22;18230;51.502;7.108;2022-09-13T05:26:36;19.40;99.90
31619;DHT22;18230;51.502;7.108;2022-09-13T05:31:39;19.40;99.90
31619;DHT22;18230;51.502;7.108;2022-09-13T05:36:41;19.40;99.90
31619;DHT22;18230;51.502;7.108;2022-09-13T05:41:42;19.50;99.90
31619;DHT22;18230;51.502;7.108;2022-09-13T05:46:47;19.50;99.90
31619;DHT22;18230;51.502;7.108;2022-09-13T05:51:49;19.60;99.90
31619;DHT22;18230;51.502;7.108;2022-09-13T05:56:52;19.60;99.90
31619;DHT22;18230;51.502;7.108;2022-09-13T06:01:57;19.70;99.90
31619;DHT22;18230;51.502;7.108;2022-09-13T06:06:58;19.70;99.90
31619;DHT22;18230;51.502;7.108;2022-09-13T06:11:59;19.70;99.90
31619;DHT22;18230;51.502;7.108;2022-09-13T06:17:02;19.70;99.90
31619;DHT22;18230;51.502;7.108;2022-09-13T06:22:02;19.70;99.90
31619;DHT22;18230;51.502;7.108;2022-09-13T06:27:03;19.80;99.90
31619;DHT22;18230;51.502;7.108;2022-09-13T06:32:04;19.80;99.90
31619;DHT22;18230;51.502;7.108;2022-09-13T06:37:05;19.90;99.90
31619;DHT22;18230;51.502;7.108;2022-09-13T06:42:06;19.90;99.90
31619;DHT22;18230;51.502;7.108;2022-09-13T06:47:07;19.90;99.90
31619;DHT22;18230;51.502;7.108;2022-09-13T06:52:07;20.00;99.90
31619;DHT22;18230;51.502;7.108;2022-09-13T06:57:08;20.00;99.90
31619;DHT22;18230;51.502;7.108;2022-09-13T07:02:10;20.10;99.90
31619;DHT22;18230;51.502;7.108;2022-09-13T07:07:11;20.20;99.90
31619;DHT22;18230;51.502;7.108;2022-09-13T07:12:12;20.30;99.90
31619;DHT22;18230;51.502;7.108;2022-09-13T07:17:13;20.50;99.90
31619;DHT22;18230;51.502;7.108;2022-09-13T07:22:14;20.60;99.90
31619;DHT22;18230;51.502;7.108;2022-09-13T07:27:15;20.70;99.90
31619;DHT22;18230;51.502;7.108;2022-09-13T07:32:16;20.80;99.90
31619;DHT22;18230;51.502;7.108;2022-09-13T07:37:17;20.90;99.90
31619;DHT22;18230;51.502;7.108;2022-09-13T07:42:17;21.00;99.90
31619;DHT22;18230;51.502;7.108;2022-09-13T07:47:18;21.10;99.90
31619;DHT22;18230;51.502;7.108;2022-09-13T07:52:20;21.30;99.90
31619;DHT22;18230;51.502;7.108;2022-09-13T07:57:21;21.30;99.90
31619;DHT22;18230;51.502;7.108;2022-09-13T08:02:22;21.30;99.90
31619;DHT22;18230;51.502;7.108;2022-09-13T08:07:23;21.30;99.90
31619;DHT22;18230;51.502;7.108;2022-09-13T08:12:24;21.30;99.90
31619;DHT22;18230;51.502;7.108;2022-09-13T08:17:29;21.30;99.90
31619;DHT22;18230;51.502;7.108;2022-09-13T08:22:35;21.40;99.90
31619;DHT22;18230;51.502;7.108;2022-09-13T08:27:35;21.50;99.90
31619;DHT22;18230;51.502;7.108;2022-09-13T08:32:36;21.50;99.90
31619;DHT22;18230;51.502;7.108;2022-09-13T08:37:37;21.70;99.90
31619;DHT22;18230;51.502;7.108;2022-09-13T08:48:06;21.90;99.90
31619;DHT22;18230;51.502;7.108;2022-09-13T08:53:28;22.10;99.90
31619;DHT22;18230;51.502;7.108;2022-09-13T08:58:35;22.40;99.90
31619;DHT22;18230;51.502;7.108;2022-09-13T09:03:52;22.60;99.90
31619;DHT22;18230;51.502;7.108;2022-09-13T09:09:06;22.80;99.90
31619;DHT22;18230;51.502;7.108;2022-09-13T09:14:12;22.90;99.90
31619;DHT22;18230;51.502;7.108;2022-09-13T09:19:35;23.10;99.90
31619;DHT22;18230;51.502;7.108;2022-09-13T09:24:38;23.30;99.90
31619;DHT22;18230;51.502;7.108;2022-09-13T09:29:40;23.30;99.90
31619;DHT22;18230;51.502;7.108;2022-09-13T09:35:05;23.30;99.90
31619;DHT22;18230;51.502;7.108;2022-09-13T09:40:12;23.70;99.90
31619;DHT22;18230;51.502;7.108;2022-09-13T09:45:25;23.90;99.90
31619;DHT22;18230;51.502;7.108;2022-09-13T09:50:33;24.10;99.90
31619;DHT22;18230;51.502;7.108;2022-09-13T09:55:48;24.00;99.90
31619;DHT22;18230;51.502;7.108;2022-09-13T10:00:57;24.20;99.90
31619;DHT22;18230;51.502;7.108;2022-09-13T10:06:12;24.40;99.90
31619;DHT22;18230;51.502;7.108;2022-09-13T10:11:14;24.60;99.90
31619;DHT22;18230;51.502;7.108;2022-09-13T10:16:26;24.90;99.90
31619;DHT22;18230;51.502;7.108;2022-09-13T10:21:28;24.90;99.90
31619;DHT22;18230;51.502;7.108;2022-09-13T10:26:31;25.00;99.90
31619;DHT22;18230;51.502;7.108;2022-09-13T10:31:42;24.90;99.90
31619;DHT22;18230;51.502;7.108;2022-09-13T10:37:11;25.20;99.90
31619;DHT22;18230;51.502;7.108;2022-09-13T10:42:21;25.40;99.90
31619;DHT22;18230;51.502;7.108;2022-09-13T10:47:44;25.30;99.90
31619;DHT22;18230;51.502;7.108;2022-09-13T10:52:48;25.40;99.90
31619;DHT22;18230;51.502;7.108;2022-09-13T10:57:55;25.60;99.90
31619;DHT22;18230;51.502;7.108;2022-09-13T11:09:04;25.70;99.90
31619;DHT22;18230;51.502;7.108;2022-09-13T11:19:46;25.80;99.90
31619;DHT22;18230;51.502;7.108;2022-09-13T11:30:22;26.00;99.90
31619;DHT22;18230;51.502;7.108;2022-09-13T11:46:28;26.10;99.90
31619;DHT22;18230;51.502;7.108;2022-09-13T11:51:46;26.40;99.90
31619;DHT22;18230;51.502;7.108;2022-09-13T11:57:01;26.60;99.90
31619;DHT22;18230;51.502;7.108;2022-09-13T12:12:46;26.60;99.90
31619;DHT22;18230;51.502;7.108;2022-09-13T12:17:53;26.60;99.90
31619;DHT22;18230;51.502;7.108;2022-09-13T12:23:00;26.40;99.90
31619;DHT22;18230;51.502;7.108;2022-09-13T12:28:18;26.60;99.90
31619;DHT22;18230;51.502;7.108;2022-09-13T12:33:21;26.70;99.90
31619;DHT22;18230;51.502;7.108;2022-09-13T12:38:39;26.60;99.90
31619;DHT22;18230;51.502;7.108;2022-09-13T12:43:48;26.70;99.90
31619;DHT22;18230;51.502;7.108;2022-09-13T13:00:07;26.80;99.90
31619;DHT22;18230;51.502;7.108;2022-09-13T13:10:36;27.10;99.90
31619;DHT22;18230;51.502;7.108;2022-09-13T13:26:05;26.70;99.90
31619;DHT22;18230;51.502;7.108;2022-09-13T13:36:29;26.70;99.90
31619;DHT22;18230;51.502;7.108;2022-09-13T13:46:38;27.30;99.90
31619;DHT22;18230;51.502;7.108;2022-09-13T13:51:38;27.40;99.90
31619;DHT22;18230;51.502;7.108;2022-09-13T13:56:47;27.40;99.90
31619;DHT22;18230;51.502;7.108;2022-09-13T14:01:52;27.40;99.90
31619;DHT22;18230;51.502;7.108;2022-09-13T14:07:16;27.30;99.90
31619;DHT22;18230;51.502;7.108;2022-09-13T14:12:55;27.50;99.90
31619;DHT22;18230;51.502;7.108;2022-09-13T14:24:16;27.60;99.90
31619;DHT22;18230;51.502;7.108;2022-09-13T14:29:22;27.30;99.90
31619;DHT22;18230;51.502;7.108;2022-09-13T14:34:30;27.00;99.90
31619;DHT22;18230;51.502;7.108;2022-09-13T14:39:35;26.90;99.90
31619;DHT22;18230;51.502;7.108;2022-09-13T14:44:36;26.90;99.90
31619;DHT22;18230;51.502;7.108;2022-09-13T14:49:44;26.80;99.90
31619;DHT22;18230;51.502;7.108;2022-09-13T14:54:51;27.00;99.90
31619;DHT22;18230;51.502;7.108;2022-09-13T14:59:57;26.90;99.90
31619;DHT22;18230;51.502;7.108;2022-09-13T15:05:00;27.00;99.90
31619;DHT22;18230;51.502;7.108;2022-09-13T15:15:21;27.10;99.90
31619;DHT22;18230;51.502;7.108;2022-09-13T15:20:24;27.30;99.90
31619;DHT22;18230;51.502;7.108;2022-09-13T15:25:27;27.50;99.90
31619;DHT22;18230;51.502;7.108;2022-09-13T15:30:31;27.60;99.90
31619;DHT22;18230;51.502;7.108;2022-09-13T15:35:44;27.40;99.90
31619;DHT22;18230;51.502;7.108;2022-09-13T15:40:56;27.10;99.90
31619;DHT22;18230;51.502;7.108;2022-09-13T15:45:58;26.70;99.90
31619;DHT22;18230;51.502;7.108;2022-09-13T15:51:10;26.50;99.90
31619;DHT22;18230;51.502;7.108;2022-09-13T15:56:47;26.30;99.90
31619;DHT22;18230;51.502;7.108;2022-09-13T16:01:42;26.20;99.90
31619;DHT22;18230;51.502;7.108;2022-09-13T16:06:44;26.10;99.90
31619;DHT22;18230;51.502;7.108;2022-09-13T16:11:46;25.90;99.90
31619;DHT22;18230;51.502;7.108;2022-09-13T16:16:48;25.80;99.90
31619;DHT22;18230;51.502;7.108;2022-09-13T16:21:49;25.70;99.90
31619;DHT22;18230;51.502;7.108;2022-09-13T16:26:50;25.60;99.90
31619;DHT22;18230;51.502;7.108;2022-09-13T16:31:50;25.50;99.90
31619;DHT22;18230;51.502;7.108;2022-09-13T16:36:51;25.40;99.90
31619;DHT22;18230;51.502;7.108;2022-09-13T16:41:52;25.30;99.90
31619;DHT22;18230;51.502;7.108;2022-09-13T16:46:53;25.10;99.90
31619;DHT22;18230;51.502;7.108;2022-09-13T16:51:53;25.00;99.90
31619;DHT22;18230;51.502;7.108;2022-09-13T16:56:56;24.90;99.90
31619;DHT22;18230;51.502;7.108;2022-09-13T17:02:00;24.90;99.90
31619;DHT22;18230;51.502;7.108;2022-09-13T17:07:04;24.90;99.90
31619;DHT22;18230;51.502;7.108;2022-09-13T17:12:08;24.80;99.90
31619;DHT22;18230;51.502;7.108;2022-09-13T17:17:09;24.70;99.90
31619;DHT22;18230;51.502;7.108;2022-09-13T17:22:12;24.70;99.90
31619;DHT22;18230;51.502;7.108;2022-09-13T17:27:13;24.50;99.90
31619;DHT22;18230;51.502;7.108;2022-09-13T17:32:13;24.50;99.90
31619;DHT22;18230;51.502;7.108;2022-09-13T17:37:14;24.50;99.90
31619;DHT22;18230;51.502;7.108;2022-09-13T17:42:16;24.40;99.90
31619;DHT22;18230;51.502;7.108;2022-09-13T17:47:17;24.30;99.90
31619;DHT22;18230;51.502;7.108;2022-09-13T17:52:17;24.20;99.90
31619;DHT22;18230;51.502;7.108;2022-09-13T17:57:18;24.20;99.90
31619;DHT22;18230;51.502;7.108;2022-09-13T18:02:19;24.10;99.90
31619;DHT22;18230;51.502;7.108;2022-09-13T18:07:21;24.10;99.90
31619;DHT22;18230;51.502;7.108;2022-09-13T18:12:22;24.00;99.90
31619;DHT22;18230;51.502;7.108;2022-09-13T18:17:27;24.00;99.90
31619;DHT22;18230;51.502;7.108;2022-09-13T18:22:55;24.00;99.90
31619;DHT22;18230;51.502;7.108;2022-09-13T18:27:56;23.90;99.90
31619;DHT22;18230;51.502;7.108;2022-09-13T18:32:57;23.90;99.90
31619;DHT22;18230;51.502;7.108;2022-09-13T18:37:58;23.80;99.90
31619;DHT22;18230;51.502;7.108;2022-09-13T18:43:01;23.70;99.90
31619;DHT22;18230;51.502;7.108;2022-09-13T18:48:02;23.60;99.90
31619;DHT22;18230;51.502;7.108;2022-09-13T18:53:14;23.60;99.90
31619;DHT22;18230;51.502;7.108;2022-09-13T18:58:17;23.50;99.90
31619;DHT22;18230;51.502;7.108;2022-09-13T19:03:18;23.50;99.90
31619;DHT22;18230;51.502;7.108;2022-09-13T19:08:21;23.50;99.90
31619;DHT22;18230;51.502;7.108;2022-09-13T19:13:22;23.40;99.90
31619;DHT22;18230;51.502;7.108;2022-09-13T19:18:23;23.40;99.90
31619;DHT22;18230;51.502;7.108;2022-09-13T19:23:27;23.30;99.90
31619;DHT22;18230;51.502;7.108;2022-09-13T19:28:28;23.20;99.90
31619;DHT22;18230;51.502;7.108;2022-09-13T19:33:31;23.10;99.90
31619;DHT22;18230;51.502;7.108;2022-09-13T19:38:32;23.10;99.90
31619;DHT22;18230;51.502;7.108;2022-09-13T19:43:35;23.00;99.90
31619;DHT22;18230;51.502;7.108;2022-09-13T19:48:41;22.90;99.90
31619;DHT22;18230;51.502;7.108;2022-09-13T19:53:43;22.80;99.90
31619;DHT22;18230;51.502;7.108;2022-09-13T19:58:44;22.60;99.90
31619;DHT22;18230;51.502;7.108;2022-09-13T20:04:00;22.40;99.90
31619;DHT22;18230;51.502;7.108;2022-09-13T20:09:02;22.30;99.90
31619;DHT22;18230;51.502;7.108;2022-09-13T20:14:05;22.10;99.90
31619;DHT22;18230;51.502;7.108;2022-09-13T20:19:06;22.00;99.90
31619;DHT22;18230;51.502;7.108;2022-09-13T20:24:10;22.00;99.90
31619;DHT22;18230;51.502;7.108;2022-09-13T20:29:10;21.80;99.90
31619;DHT22;18230;51.502;7.108;2022-09-13T20:34:12;21.70;99.90
31619;DHT22;18230;51.502;7.108;2022-09-13T20:39:16;21.50;99.90
31619;DHT22;18230;51.502;7.108;2022-09-13T20:44:18;21.40;99.90
31619;DHT22;18230;51.502;7.108;2022-09-13T20:49:42;21.30;99.90
31619;DHT22;18230;51.502;7.108;2022-09-13T20:54:43;21.30;99.90
31619;DHT22;18230;51.502;7.108;2022-09-13T20:59:44;21.20;99.90
31619;DHT22;18230;51.502;7.108;2022-09-13T21:04:46;21.20;99.90
31619;DHT22;18230;51.502;7.108;2022-09-13T21:09:50;21.30;99.90
31619;DHT22;18230;51.502;7.108;2022-09-13T21:21:00;21.40;99.90
31619;DHT22;18230;51.502;7.108;2022-09-13T21:26:12;21.30;99.90
31619;DHT22;18230;51.502;7.108;2022-09-13T21:31:23;21.40;99.90
31619;DHT22;18230;51.502;7.108;2022-09-13T21:36:26;21.40;99.90
31619;DHT22;18230;51.502;7.108;2022-09-13T21:41:27;21.20;99.90
31619;DHT22;18230;51.502;7.108;2022-09-13T21:46:30;21.10;99.90
31619;DHT22;18230;51.502;7.108;2022-09-13T21:51:37;21.10;99.90
31619;DHT22;18230;51.502;7.108;2022-09-13T21:56:39;20.90;99.90
31619;DHT22;18230;51.502;7.108;2022-09-13T22:01:43;20.80;99.90
31619;DHT22;18230;51.502;7.108;2022-09-13T22:07:12;20.70;99.90
31619;DHT22;18230;51.502;7.108;2022-09-13T22:12:13;20.70;99.90
31619;DHT22;18230;51.502;7.108;2022-09-13T22:17:17;20.60;99.90
31619;DHT22;18230;51.502;7.108;2022-09-13T22:22:18;20.50;99.90
31619;DHT22;18230;51.502;7.108;2022-09-13T22:27:19;20.50;99.90
31619;DHT22;18230;51.502;7.108;2022-09-13T22:32:19;20.50;99.90
31619;DHT22;18230;51.502;7.108;2022-09-13T22:37:20;20.50;99.90
31619;DHT22;18230;51.502;7.108;2022-09-13T22:42:24;20.50;99.90
31619;DHT22;18230;51.502;7.108;2022-09-13T22:47:26;20.60;99.90
31619;DHT22;18230;51.502;7.108;2022-09-13T22:52:27;20.40;99.90
31619;DHT22;18230;51.502;7.108;2022-09-13T22:57:30;20.30;99.90
31619;DHT22;18230;51.502;7.108;2022-09-13T23:02:31;20.10;99.90
31619;DHT22;18230;51.502;7.108;2022-09-13T23:07:32;20.10;99.90
31619;DHT22;18230;51.502;7.108;2022-09-13T23:12:32;20.10;99.90
31619;DHT22;18230;51.502;7.108;2022-09-13T23:17:33;20.10;99.90
31619;DHT22;18230;51.502;7.108;2022-09-13T23:22:34;20.00;99.90
31619;DHT22;18230;51.502;7.108;2022-09-13T23:27:35;19.90;99.90
31619;DHT22;18230;51.502;7.108;2022-09-13T23:32:36;19.80;99.90
31619;DHT22;18230;51.502;7.108;2022-09-13T23:37:37;19.70;99.90
31619;DHT22;18230;51.502;7.108;2022-09-13T23:42:39;19.60;99.90
31619;DHT22;18230;51.502;7.108;2022-09-13T23:47:40;19.50;99.90
31619;DHT22;18230;51.502;7.108;2022-09-13T23:52:40;19.40;99.90
31619;DHT22;18230;51.502;7.108;2022-09-13T23:57:41;19.40;99.90
